Time;durP1;ratioP1;P1;durP2;ratioP2;P2;SDS_P1;SDS_P2;PMS_P1;PMS_P2;Temp;Humidity;BMP_temperature;BMP_pressure;BME280_temperature;BME280_humidity;BME280_pressure;Samples;Min_cycle;Max_cycle;Signal;HPM_P1;HPM_P2
2022/09/18 00:00:47;;;;;;;7.55;2.55;;;;;;;18.55;100.00;98677.06;5102133;28;20675;-35
2022/09/18 00:03:14;;;;;;;4.05;2.00;;;;;;;18.72;100.00;98698.00;5087552;28;20169;-32
2022/09/18 00:05:39;;;;;;;9.33;2.30;;;;;;;18.40;100.00;98699.78;5080340;28;20142;-30
2022/09/18 00:08:06;;;;;;;4.20;2.22;;;;;;;18.17;100.00;98700.84;5081598;28;20190;-30
2022/09/18 00:10:32;;;;;;;6.00;2.47;;;;;;;18.24;100.00;98693.91;5081708;28;20028;-30
2022/09/18 00:12:57;;;;;;;4.90;2.13;;;;;;;18.03;100.00;98690.84;5079598;28;20039;-32
2022/09/18 00:15:23;;;;;;;4.28;2.20;;;;;;;17.95;100.00;98699.66;5067666;28;20028;-32
2022/09/18 00:17:48;;;;;;;5.07;2.40;;;;;;;18.55;100.00;98685.16;5067862;28;20116;-33
2022/09/18 00:20:14;;;;;;;7.35;2.80;;;;;;;18.59;100.00;98685.34;5068146;28;20115;-30
2022/09/18 00:22:42;;;;;;;5.93;3.08;;;;;;;18.73;100.00;98690.69;5068205;28;20109;-36
2022/09/18 00:25:08;;;;;;;6.97;2.75;;;;;;;18.78;100.00;98690.59;5066682;28;20040;-29
2022/09/18 00:27:33;;;;;;;4.78;2.33;;;;;;;18.89;100.00;98708.16;5068113;28;20475;-33
2022/09/18 00:29:59;;;;;;;5.32;3.00;;;;;;;18.75;100.00;98691.97;5067717;28;20029;-32
2022/09/18 00:32:24;;;;;;;8.10;2.92;;;;;;;18.53;100.00;98700.06;5067766;28;20032;-34
2022/09/18 00:34:50;;;;;;;6.47;3.03;;;;;;;18.87;100.00;98700.34;5067994;28;20492;-33
2022/09/18 00:37:16;;;;;;;6.53;2.85;;;;;;;18.84;100.00;98689.38;5067712;28;20029;-31
2022/09/18 00:39:41;;;;;;;6.45;2.58;;;;;;;19.13;98.93;98675.41;5066457;28;20066;-35
2022/09/18 00:42:10;;;;;;;6.00;2.45;;;;;;;19.30;97.25;98693.63;5067638;28;20029;-32
2022/09/18 00:44:41;;;;;;;5.05;2.50;;;;;;;19.50;97.36;98700.41;5067689;28;20877;-30
2022/09/18 00:47:16;;;;;;;7.63;3.30;;;;;;;19.26;96.89;98698.84;5066541;28;20036;-32
2022/09/18 00:49:48;;;;;;;9.00;4.15;;;;;;;19.01;99.19;98672.47;5067634;28;20035;-33
2022/09/18 00:52:17;;;;;;;8.43;4.18;;;;;;;18.93;99.04;98673.22;5066495;28;20033;-29
2022/09/18 00:54:48;;;;;;;11.75;4.88;;;;;;;18.82;99.84;98676.19;5066046;28;20040;-29
2022/09/18 00:57:17;;;;;;;28.13;5.25;;;;;;;18.58;100.00;98686.44;5065880;28;20029;-34
2022/09/18 00:59:50;;;;;;;7.35;4.47;;;;;;;18.43;100.00;98691.09;5065848;28;20032;-29
2022/09/18 01:02:15;;;;;;;10.48;3.85;;;;;;;18.67;100.00;98690.00;5065595;28;20036;-31
2022/09/18 01:04:41;;;;;;;7.32;3.38;;;;;;;19.31;98.03;98686.31;5065425;28;20496;-32
2022/09/18 01:07:19;;;;;;;8.48;4.25;;;;;;;19.25;97.72;98688.38;5067165;28;20029;-34
2022/09/18 01:09:57;;;;;;;10.48;5.10;;;;;;;18.66;100.00;98702.72;5065319;28;20739;-36
2022/09/18 01:12:42;;;;;;;8.65;4.10;;;;;;;18.94;99.08;98699.13;5065793;28;20028;-30
2022/09/18 01:15:33;;;;;;;10.25;3.72;;;;;;;18.52;98.07;98695.78;5065155;28;20484;-32
2022/09/18 01:18:20;;;;;;;7.30;3.15;;;;;;;18.38;100.00;98693.09;5066222;28;20078;-32
2022/09/18 01:21:13;;;;;;;4.95;2.60;;;;;;;18.73;100.00;98698.78;5066689;28;20040;-29
2022/09/18 01:23:57;;;;;;;6.47;2.45;;;;;;;19.10;98.46;98697.63;5062839;28;20419;-31
2022/09/18 01:26:33;;;;;;;15.00;2.70;;;;;;;18.50;98.92;98670.97;5065731;28;20055;-34
2022/09/18 01:29:10;;;;;;;12.43;3.70;;;;;;;18.36;100.00;98688.00;5066561;28;20033;-30
2022/09/18 01:31:58;;;;;;;20.67;2.70;;;;;;;18.00;100.00;98683.38;5066376;28;20035;-36
2022/09/18 01:34:41;;;;;;;40.72;3.08;;;;;;;17.94;100.00;98671.09;5064758;28;20090;-31
2022/09/18 01:37:36;;;;;;;26.08;3.80;;;;;;;18.85;100.00;98689.06;5064793;28;20033;-30
2022/09/18 01:40:23;;;;;;;20.75;3.63;;;;;;;18.81;100.00;98695.38;5058538;28;20131;-31
2022/09/18 01:42:53;;;;;;;20.38;3.05;;;;;;;18.71;100.00;98687.50;5064762;28;20025;-29
2022/09/18 01:45:25;;;;;;;23.10;3.05;;;;;;;18.70;99.27;98686.72;5064393;28;20310;-30
2022/09/18 01:47:55;;;;;;;34.45;3.38;;;;;;;18.40;100.00;98707.09;5064568;28;20189;-30
2022/09/18 01:50:21;;;;;;;45.45;4.15;;;;;;;18.48;100.00;98719.88;5064484;28;20020;-29
2022/09/18 01:53:06;;;;;;;44.38;6.47;;;;;;;18.15;100.00;98716.53;5064466;28;20029;-30
2022/09/18 01:55:33;;;;;;;42.00;4.70;;;;;;;18.11;100.00;98704.75;5065977;28;20024;-36
2022/09/18 01:58:06;;;;;;;18.63;3.88;;;;;;;17.95;100.00;98712.34;5064136;28;20064;-30
2022/09/18 02:00:33;;;;;;;16.33;3.65;;;;;;;17.93;100.00;98693.78;5064323;28;20154;-32
2022/09/18 02:03:10;;;;;;;21.50;3.30;;;;;;;17.80;100.00;98721.53;5064114;28;20056;-29
2022/09/18 02:05:47;;;;;;;33.47;5.10;;;;;;;17.53;100.00;98719.59;5080852;28;20131;-29
2022/09/18 02:08:32;;;;;;;15.35;3.97;;;;;;;17.48;100.00;98701.63;5067396;28;20038;-36
2022/09/18 02:11:05;;;;;;;9.75;4.90;;;;;;;17.61;100.00;98725.09;5067622;28;20049;-31
2022/09/18 02:13:39;;;;;;;12.50;3.70;;;;;;;17.48;100.00;98723.19;5067607;28;20062;-33
2022/09/18 02:16:12;;;;;;;11.35;4.15;;;;;;;17.45;100.00;98702.22;5067199;28;20027;-29
2022/09/18 02:18:43;;;;;;;10.25;4.25;;;;;;;17.64;100.00;98734.50;5066823;28;20027;-30
2022/09/18 02:21:12;;;;;;;12.60;4.97;;;;;;;17.69;100.00;98737.06;5067233;28;20035;-31
2022/09/18 02:23:40;;;;;;;9.00;4.45;;;;;;;18.16;100.00;98737.81;5067042;28;20086;-40
2022/09/18 02:26:07;;;;;;;10.82;4.15;;;;;;;18.17;100.00;98735.94;5067124;28;20031;-34
2022/09/18 02:28:33;;;;;;;8.73;3.75;;;;;;;18.70;100.00;98732.59;5067100;28;20043;-31
2022/09/18 02:30:59;;;;;;;15.93;4.45;;;;;;;18.79;99.52;98735.41;5067328;28;20036;-32
2022/09/18 02:33:26;;;;;;;40.03;6.32;;;;;;;18.00;100.00;98720.31;5085871;28;20043;-30
2022/09/18 02:36:03;;;;;;;32.67;5.97;;;;;;;18.12;100.00;98738.72;5085447;28;20016;-29
2022/09/18 02:38:43;;;;;;;19.33;5.05;;;;;;;18.38;100.00;98737.06;5067180;28;20036;-32
2022/09/18 02:41:37;;;;;;;31.38;5.63;;;;;;;18.03;100.00;98742.13;5066962;28;20031;-34
2022/09/18 02:44:19;;;;;;;39.85;6.18;;;;;;;17.73;100.00;98743.47;5085134;28;20024;-30
2022/09/18 02:46:45;;;;;;;38.30;6.57;;;;;;;17.94;100.00;98743.09;5085608;28;20059;-30
2022/09/18 02:49:13;;;;;;;21.60;5.90;;;;;;;17.54;100.00;98748.16;5085277;28;20075;-30
2022/09/18 02:51:56;;;;;;;42.88;7.18;;;;;;;17.31;100.00;98755.28;5085334;28;20583;-29
2022/09/18 02:54:31;;;;;;;34.65;7.05;;;;;;;17.18;100.00;98749.56;5085506;28;20053;-31
2022/09/18 02:57:36;;;;;;;18.27;5.90;;;;;;;17.35;100.00;98756.31;5067256;28;20042;-29
2022/09/18 03:00:04;;;;;;;19.48;5.63;;;;;;;17.72;100.00;98755.38;5069413;28;20120;-35
2022/09/18 03:02:30;;;;;;;24.50;5.75;;;;;;;17.89;100.00;98773.69;5066513;28;20043;-32
2022/09/18 03:04:55;;;;;;;25.20;6.57;;;;;;;18.10;100.00;98754.41;5063344;28;20063;-32
2022/09/18 03:07:21;;;;;;;46.22;6.55;;;;;;;18.23;100.00;98762.50;5063666;28;20021;-32
2022/09/18 03:09:46;;;;;;;38.67;6.70;;;;;;;17.61;100.00;98772.81;5064675;28;20407;-36
2022/09/18 03:12:13;;;;;;;29.17;6.00;;;;;;;17.14;100.00;98797.03;5064931;28;20058;-31
2022/09/18 03:14:38;;;;;;;28.05;6.38;;;;;;;16.94;100.00;98786.56;5063369;28;20024;-29
2022/09/18 03:17:04;;;;;;;21.55;7.15;;;;;;;17.19;100.00;98798.84;5063249;28;20025;-33
2022/09/18 03:19:29;;;;;;;26.98;7.57;;;;;;;17.12;100.00;98796.53;5065103;28;20032;-32
2022/09/18 03:21:55;;;;;;;15.30;7.10;;;;;;;16.95;100.00;98783.56;5064595;28;20036;-31
2022/09/18 03:24:20;;;;;;;17.92;8.20;;;;;;;17.18;100.00;98810.72;5064749;28;20024;-35
2022/09/18 03:26:46;;;;;;;20.40;8.65;;;;;;;16.93;100.00;98782.28;5064611;28;20562;-31
2022/09/18 03:29:13;;;;;;;19.77;7.45;;;;;;;17.11;100.00;98819.16;5062897;28;20388;-30
2022/09/18 03:31:39;;;;;;;22.63;9.77;;;;;;;16.69;100.00;98801.94;5062605;28;20021;-32
2022/09/18 03:34:04;;;;;;;22.10;10.02;;;;;;;16.51;100.00;98814.31;5062984;28;20069;-32
2022/09/18 03:36:30;;;;;;;22.20;10.20;;;;;;;16.70;100.00;98829.69;5062829;28;20028;-30
2022/09/18 03:38:55;;;;;;;22.52;10.00;;;;;;;16.98;100.00;98852.19;5064589;28;20029;-37
2022/09/18 03:41:21;;;;;;;19.55;9.23;;;;;;;16.64;100.00;98842.41;5064282;28;20131;-31
2022/09/18 03:43:47;;;;;;;16.63;9.27;;;;;;;16.59;100.00;98867.50;5064088;28;20535;-32
2022/09/18 03:46:13;;;;;;;17.08;9.50;;;;;;;16.84;100.00;98854.84;5045900;28;20028;-29
2022/09/18 03:48:39;;;;;;;18.27;9.68;;;;;;;16.46;100.00;98863.59;5064951;28;20510;-30
2022/09/18 03:51:04;;;;;;;17.40;10.02;;;;;;;16.70;100.00;98876.25;5068211;28;20100;-36
2022/09/18 03:53:29;;;;;;;20.20;10.60;;;;;;;16.58;100.00;98871.25;5068096;28;20043;-33
2022/09/18 03:55:55;;;;;;;20.92;11.00;;;;;;;16.89;100.00;98872.81;5068329;28;20107;-29
2022/09/18 03:58:20;;;;;;;19.45;11.15;;;;;;;16.83;100.00;98889.00;5067861;28;20043;-33
2022/09/18 04:00:46;;;;;;;20.10;10.95;;;;;;;16.96;100.00;98902.84;5066259;28;20024;-30
2022/09/18 04:03:11;;;;;;;24.00;12.48;;;;;;;16.61;100.00;98899.50;5065974;28;20836;-31
2022/09/18 04:05:37;;;;;;;23.50;12.20;;;;;;;16.74;100.00;98896.13;5082706;28;20716;-29
2022/09/18 04:08:04;;;;;;;22.08;12.45;;;;;;;16.86;100.00;98904.59;5087607;28;20032;-32
2022/09/18 04:10:30;;;;;;;28.40;12.48;;;;;;;16.84;100.00;98922.16;5069352;28;20028;-35
2022/09/18 04:12:56;;;;;;;24.02;13.25;;;;;;;16.72;100.00;98919.81;5069420;28;20035;-34
2022/09/18 04:15:21;;;;;;;28.58;14.02;;;;;;;16.65;100.00;98922.06;5088212;28;20036;-30
2022/09/18 04:17:47;;;;;;;32.33;16.30;;;;;;;16.82;100.00;98933.19;5087811;28;20099;-29
2022/09/18 04:20:12;;;;;;;28.90;14.77;;;;;;;16.87;100.00;98938.50;5087778;28;20027;-33
2022/09/18 04:22:37;;;;;;;25.92;14.75;;;;;;;16.78;100.00;98951.00;5088120;28;20074;-29
2022/09/18 04:25:04;;;;;;;18.48;10.13;;;;;;;16.63;100.00;98951.16;5087805;28;20051;-30
2022/09/18 04:27:29;;;;;;;11.40;5.85;;;;;;;16.48;100.00;98965.56;5069388;28;20043;-30
2022/09/18 04:29:55;;;;;;;11.25;5.13;;;;;;;16.19;100.00;98970.97;5068788;28;20024;-32
2022/09/18 04:32:20;;;;;;;7.35;4.22;;;;;;;16.15;100.00;98978.78;5088097;28;20037;-33
2022/09/18 04:34:45;;;;;;;7.85;3.67;;;;;;;16.25;100.00;99005.59;5087625;28;20035;-30
2022/09/18 04:37:11;;;;;;;5.53;2.88;;;;;;;16.19;98.45;98997.88;5087865;28;20094;-29
2022/09/18 04:39:36;;;;;;;8.65;3.42;;;;;;;16.18;98.58;99009.69;5087501;28;20024;-33
2022/09/18 04:42:03;;;;;;;6.00;3.38;;;;;;;16.11;99.10;99010.03;5087117;28;20414;-30
2022/09/18 04:44:29;;;;;;;8.15;3.17;;;;;;;16.04;98.28;99028.38;5068612;28;20042;-30
2022/09/18 04:46:54;;;;;;;6.15;3.15;;;;;;;15.78;99.07;99017.00;5087259;28;20032;-30
2022/09/18 04:49:20;;;;;;;5.90;2.60;;;;;;;15.72;97.93;99032.34;5087220;28;20028;-32
2022/09/18 04:51:45;;;;;;;5.70;2.90;;;;;;;15.71;97.96;99027.19;5086907;28;20422;-41
2022/09/18 04:54:11;;;;;;;6.57;2.33;;;;;;;15.70;98.67;99033.69;5087013;28;20024;-32
2022/09/18 04:56:36;;;;;;;4.82;2.40;;;;;;;15.76;97.88;99033.38;5087186;28;20036;-29
2022/09/18 04:59:02;;;;;;;6.55;2.42;;;;;;;15.79;97.04;99037.41;5086827;28;20024;-30
2022/09/18 05:01:28;;;;;;;3.28;2.03;;;;;;;15.61;97.02;99018.13;5087106;28;20028;-29
2022/09/18 05:03:53;;;;;;;6.32;2.30;;;;;;;15.75;97.02;99021.03;5086608;28;20035;-34
2022/09/18 05:06:19;;;;;;;3.88;1.63;;;;;;;15.44;92.72;99015.00;5068703;28;20024;-29
2022/09/18 05:08:44;;;;;;;2.65;1.50;;;;;;;15.13;92.95;99020.50;5087047;28;20043;-32
2022/09/18 05:11:10;;;;;;;3.97;1.70;;;;;;;14.99;92.62;99017.59;5086926;28;20028;-29
2022/09/18 05:13:35;;;;;;;4.57;1.42;;;;;;;15.00;92.62;99026.47;5086802;28;20036;-31
2022/09/18 05:16:01;;;;;;;3.78;1.50;;;;;;;15.10;93.42;99020.22;5086736;28;20498;-28
2022/09/18 05:18:26;;;;;;;2.92;1.35;;;;;;;15.09;90.86;99032.06;5086685;28;20032;-33
2022/09/18 05:20:53;;;;;;;1.80;1.50;;;;;;;14.98;89.94;99036.66;5086593;28;20028;-31
2022/09/18 05:23:19;;;;;;;2.15;1.02;;;;;;;14.84;89.98;99039.91;5086784;28;20035;-28
2022/09/18 05:25:45;;;;;;;3.10;1.13;;;;;;;14.90;89.71;99032.66;5086517;28;20084;-28
2022/09/18 05:28:14;;;;;;;1.90;0.70;;;;;;;14.83;87.39;99034.81;5086428;28;20077;-29
2022/09/18 05:30:39;;;;;;;1.65;0.80;;;;;;;15.09;85.74;99073.13;5086447;28;20040;-31
2022/09/18 05:33:06;;;;;;;3.95;0.82;;;;;;;15.12;87.03;99061.88;5086357;28;20089;-29
2022/09/18 05:35:33;;;;;;;2.72;1.08;;;;;;;15.34;87.03;99066.06;5086143;28;20032;-31
2022/09/18 05:37:59;;;;;;;2.47;0.93;;;;;;;15.41;84.92;99053.16;5067763;28;20056;-30
2022/09/18 05:40:29;;;;;;;0.88;0.85;;;;;;;15.40;82.63;99056.91;5086189;28;20448;-33
2022/09/18 05:42:55;;;;;;;1.42;0.80;;;;;;;15.15;82.00;99066.69;5085906;28;20035;-29
2022/09/18 05:45:21;;;;;;;3.05;0.60;;;;;;;15.38;81.09;99067.94;5067909;28;20028;-30
2022/09/18 05:47:56;;;;;;;0.77;0.63;;;;;;;15.54;80.18;99076.75;5086047;28;20109;-31
2022/09/18 05:50:23;;;;;;;2.00;1.00;;;;;;;15.57;81.67;99073.50;5067471;28;20564;-31
2022/09/18 05:53:11;;;;;;;2.38;0.73;;;;;;;15.72;79.24;99080.72;5067507;28;20038;-30
2022/09/18 05:55:36;;;;;;;1.77;0.80;;;;;;;15.57;78.04;99103.06;5067559;28;20032;-29
2022/09/18 05:58:04;;;;;;;2.72;0.80;;;;;;;15.61;81.38;99066.50;5085754;28;20028;-31
2022/09/18 06:00:31;;;;;;;2.95;0.82;;;;;;;15.59;79.48;99082.09;5067626;28;20032;-31
2022/09/18 06:02:59;;;;;;;0.90;0.75;;;;;;;15.46;77.84;99093.44;5067075;28;20857;-28
2022/09/18 06:05:26;;;;;;;1.10;0.60;;;;;;;15.52;79.74;99113.03;5067489;28;20051;-30
2022/09/18 06:07:52;;;;;;;1.02;0.60;;;;;;;15.59;78.01;99127.78;5066915;28;20038;-27
2022/09/18 06:10:19;;;;;;;0.60;0.60;;;;;;;15.58;77.10;99106.56;5085772;28;20032;-29
2022/09/18 06:12:45;;;;;;;1.65;0.70;;;;;;;15.60;76.42;99105.19;5066861;28;20069;-32
2022/09/18 06:15:11;;;;;;;1.75;0.80;;;;;;;15.52;76.82;99113.03;5085615;28;20058;-31
2022/09/18 06:17:37;;;;;;;1.17;0.70;;;;;;;15.67;76.99;99137.97;5067237;28;20024;-32
2022/09/18 06:20:04;;;;;;;2.55;1.35;;;;;;;15.70;75.63;99157.31;5066919;28;20118;-30
2022/09/18 06:22:31;;;;;;;1.17;0.75;;;;;;;15.79;75.59;99155.69;5085485;28;20032;-29
2022/09/18 06:24:57;;;;;;;2.35;0.70;;;;;;;16.00;74.21;99164.47;5067418;28;20411;-29
2022/09/18 06:27:22;;;;;;;2.05;0.65;;;;;;;15.95;73.19;99170.66;5085783;28;20025;-30
2022/09/18 06:29:47;;;;;;;1.67;0.90;;;;;;;15.92;71.87;99160.47;5085483;28;20032;-28
2022/09/18 06:32:13;;;;;;;0.82;0.70;;;;;;;16.08;73.20;99196.16;5085693;28;20551;-31
2022/09/18 06:34:38;;;;;;;2.78;0.77;;;;;;;16.09;72.19;99191.59;5067226;28;20028;-34
2022/09/18 06:37:04;;;;;;;1.80;0.60;;;;;;;16.33;71.02;99203.28;5085732;28;20024;-28
2022/09/18 06:39:29;;;;;;;2.83;0.60;;;;;;;16.17;71.02;99191.81;5067256;28;20023;-33
2022/09/18 06:41:55;;;;;;;1.20;0.70;;;;;;;16.11;71.74;99221.69;5085317;28;20081;-30
2022/09/18 06:44:20;;;;;;;3.08;0.90;;;;;;;16.22;72.01;99225.94;5067204;28;20035;-33
2022/09/18 06:46:46;;;;;;;0.68;0.68;;;;;;;16.35;70.73;99238.00;5085400;28;20491;-27
2022/09/18 06:49:12;;;;;;;3.35;0.98;;;;;;;16.50;69.76;99251.38;5085104;28;20850;-27
2022/09/18 06:51:39;;;;;;;3.30;1.08;;;;;;;16.51;70.60;99236.00;5084874;28;20024;-29
2022/09/18 06:54:05;;;;;;;3.08;0.90;;;;;;;16.59;69.70;99254.25;5084765;28;20539;-30
2022/09/18 06:56:30;;;;;;;2.92;1.13;;;;;;;16.36;68.16;99248.47;5085198;28;20047;-33
2022/09/18 06:58:55;;;;;;;1.58;0.70;;;;;;;16.17;67.85;99258.25;5084951;28;20028;-31
2022/09/18 07:01:21;;;;;;;1.05;0.90;;;;;;;16.36;68.69;99267.31;5084830;28;20055;-29
2022/09/18 07:03:49;;;;;;;1.67;0.88;;;;;;;16.26;68.20;99265.50;5066277;28;20024;-31
2022/09/18 07:06:15;;;;;;;1.35;0.95;;;;;;;16.37;66.66;99277.00;5066438;28;20666;-31
2022/09/18 07:08:41;;;;;;;1.70;1.20;;;;;;;16.22;65.61;99279.75;5066753;28;20024;-30
2022/09/18 07:11:06;;;;;;;2.15;1.02;;;;;;;16.10;66.09;99284.63;5085186;28;20024;-31
2022/09/18 07:13:33;;;;;;;2.38;1.17;;;;;;;15.74;66.90;99272.09;5084894;28;20028;-29
2022/09/18 07:15:58;;;;;;;3.20;1.20;;;;;;;15.82;68.50;99294.94;5066422;28;20125;-31
2022/09/18 07:18:25;;;;;;;2.67;1.00;;;;;;;15.77;66.79;99305.69;5084800;28;20058;-33
2022/09/18 07:20:52;;;;;;;2.05;1.25;;;;;;;15.76;66.42;99312.16;5066639;28;20048;-29
2022/09/18 07:23:18;;;;;;;2.63;1.20;;;;;;;15.82;66.63;99309.19;5084767;28;20024;-28
2022/09/18 07:25:45;;;;;;;3.92;1.60;;;;;;;16.32;64.15;99303.13;5070239;28;20047;-29
2022/09/18 07:28:11;;;;;;;11.00;1.80;;;;;;;16.20;62.98;99323.09;5088602;28;20119;-29
2022/09/18 07:30:38;;;;;;;3.58;1.45;;;;;;;16.27;62.22;99328.16;5070214;28;20028;-29
2022/09/18 07:33:05;;;;;;;3.33;1.60;;;;;;;16.10;62.94;99331.19;5070217;28;20044;-29
2022/09/18 07:35:31;;;;;;;6.43;1.40;;;;;;;15.78;62.93;99312.69;5088851;28;20041;-33
2022/09/18 07:38:01;;;;;;;6.10;1.50;;;;;;;15.97;62.71;99339.81;5070625;28;20127;-29
2022/09/18 07:40:27;;;;;;;1.83;1.13;;;;;;;15.76;62.41;99345.22;5089113;28;20491;-28
2022/09/18 07:42:59;;;;;;;2.00;1.40;;;;;;;15.48;61.46;99338.47;5088605;28;20082;-32
2022/09/18 07:45:24;;;;;;;3.63;1.55;;;;;;;15.71;65.39;99358.63;5088747;28;20035;-34
2022/09/18 07:47:50;;;;;;;6.25;1.70;;;;;;;15.71;65.27;99352.44;5088188;28;20028;-31
2022/09/18 07:50:15;;;;;;;4.47;2.17;;;;;;;15.76;62.67;99355.97;5088379;28;20040;-29
2022/09/18 07:53:08;;;;;;;4.53;1.60;;;;;;;15.81;63.37;99368.59;5069697;28;20028;-32
2022/09/18 07:55:35;;;;;;;4.53;1.40;;;;;;;15.79;62.55;99376.13;5083950;28;20059;-28
2022/09/18 07:58:03;;;;;;;4.13;1.80;;;;;;;15.70;63.28;99372.34;5069595;28;20192;-31
2022/09/18 08:00:32;;;;;;;;;;;;;;;15.98;62.55;99395.22;5070349;28;20035;-30
2022/09/18 08:03:10;;;;;;;5.50;1.60;;;;;;;15.93;62.60;99392.50;5069761;28;19923;-31
2022/09/18 08:05:36;;;;;;;2.97;1.50;;;;;;;15.67;61.72;99371.81;5087773;28;20060;-31
2022/09/18 08:08:03;;;;;;;2.97;1.50;;;;;;;15.86;63.93;99406.25;5069488;28;20036;-30
2022/09/18 08:10:29;;;;;;;5.43;1.70;;;;;;;15.63;62.85;99404.84;5069469;28;20042;-33
2022/09/18 08:12:54;;;;;;;3.58;1.77;;;;;;;15.48;62.99;99405.66;5088000;28;20053;-28
2022/09/18 08:15:19;;;;;;;2.70;1.50;;;;;;;15.58;64.50;99402.97;5088223;28;20036;-31
2022/09/18 08:17:45;;;;;;;2.83;1.45;;;;;;;15.51;63.63;99383.63;5087970;28;20027;-29
2022/09/18 08:20:11;;;;;;;4.30;2.10;;;;;;;15.46;64.93;99384.41;5069351;28;20675;-30
2022/09/18 08:22:38;;;;;;;3.05;1.75;;;;;;;15.69;64.78;99387.66;5069161;28;20119;-28
2022/09/18 08:25:04;;;;;;;4.28;2.13;;;;;;;15.86;65.35;99392.78;5069558;28;20067;-29
2022/09/18 08:27:30;;;;;;;3.50;2.00;;;;;;;15.79;65.56;99382.31;5068578;28;20028;-33
2022/09/18 08:29:57;;;;;;;2.30;1.52;;;;;;;15.70;64.30;99389.28;5067908;28;20035;-32
2022/09/18 08:32:22;;;;;;;3.58;2.05;;;;;;;15.72;65.23;99383.63;5068995;28;20024;-31
2022/09/18 08:34:48;;;;;;;2.83;1.85;;;;;;;15.72;63.75;99391.69;5086799;28;20466;-30
2022/09/18 08:37:13;;;;;;;4.95;2.10;;;;;;;15.60;64.95;99390.06;5068536;28;20394;-29
2022/09/18 08:39:39;;;;;;;5.10;1.80;;;;;;;15.56;64.87;99413.19;5087277;28;20320;-31
2022/09/18 08:42:45;;;;;;;1.85;1.55;;;;;;;15.62;65.49;99422.84;5087155;28;20480;-29
2022/09/18 08:45:17;;;;;;;3.07;1.97;;;;;;;15.83;65.04;99417.53;5069325;28;20043;-29
2022/09/18 08:47:51;;;;;;;2.80;1.52;;;;;;;16.35;64.16;99411.00;5087297;28;20041;-30
2022/09/18 08:50:27;;;;;;;3.33;1.50;;;;;;;16.47;61.56;99419.59;5087149;28;20479;-28
2022/09/18 08:53:00;;;;;;;6.88;1.50;;;;;;;16.28;63.11;99421.22;5068957;28;20036;-30
2022/09/18 08:55:32;;;;;;;2.53;1.50;;;;;;;16.71;61.73;99418.94;5087352;28;20028;-28
2022/09/18 08:58:11;;;;;;;3.05;1.45;;;;;;;16.90;61.77;99464.16;5068645;28;20032;-30
2022/09/18 09:00:40;;;;;;;4.90;2.45;;;;;;;17.09;62.10;99446.31;5068589;28;20044;-31
2022/09/18 09:03:33;;;;;;;2.40;1.20;;;;;;;17.46;60.73;99431.53;5068243;28;20078;-27
2022/09/18 09:06:36;;;;;;;3.25;1.50;;;;;;;17.20;60.03;99438.97;5087008;28;20052;-29
2022/09/18 09:09:09;;;;;;;3.22;1.60;;;;;;;16.71;61.81;99439.69;5086840;28;20111;-31
2022/09/18 09:12:01;;;;;;;5.82;1.50;;;;;;;16.90;61.97;99438.06;5086897;28;20032;-28
2022/09/18 09:14:42;;;;;;;4.00;1.48;;;;;;;16.85;62.25;99436.16;5068658;28;20032;-34
2022/09/18 09:17:36;;;;;;;2.35;1.50;;;;;;;16.92;60.31;99452.03;5086854;28;20043;-29
2022/09/18 09:20:02;;;;;;;5.60;1.23;;;;;;;16.37;60.06;99434.97;5086553;28;20136;-30
2022/09/18 09:22:49;;;;;;;1.55;1.10;;;;;;;16.38;60.86;99450.81;5086754;28;20119;-29
2022/09/18 09:25:33;;;;;;;1.90;1.27;;;;;;;16.33;61.55;99445.44;5068623;28;20028;-28
2022/09/18 09:28:32;;;;;;;3.97;1.50;;;;;;;16.65;61.02;99447.81;5085842;28;20043;-32
2022/09/18 09:31:03;;;;;;;2.17;1.20;;;;;;;16.83;60.45;99427.56;5063228;28;20035;-29
2022/09/18 09:33:38;;;;;;;3.90;1.75;;;;;;;17.03;59.41;99445.53;5068423;28;20090;-31
2022/09/18 09:36:13;;;;;;;3.00;1.30;;;;;;;16.84;59.82;99423.00;5067782;28;20136;-28
2022/09/18 09:39:17;;;;;;;1.85;1.17;;;;;;;17.20;58.91;99423.63;5068248;28;20042;-30
2022/09/18 09:41:51;;;;;;;2.08;1.20;;;;;;;17.34;59.20;99415.72;5086310;28;20056;-29
2022/09/18 09:44:36;;;;;;;3.30;1.15;;;;;;;17.62;56.68;99449.22;5086014;28;20035;-28
2022/09/18 09:47:22;;;;;;;4.28;1.40;;;;;;;18.30;58.95;99436.81;5085415;28;20028;-28
2022/09/18 09:50:01;;;;;;;3.00;1.30;;;;;;;18.85;57.22;99428.41;5067551;28;20043;-28
2022/09/18 09:52:28;;;;;;;4.70;1.40;;;;;;;18.79;55.90;99408.75;5067784;28;20059;-28
2022/09/18 09:55:18;;;;;;;2.55;1.30;;;;;;;18.04;56.31;99418.19;5067205;28;20028;-32
2022/09/18 09:57:59;;;;;;;2.63;1.10;;;;;;;17.84;55.92;99424.56;5086087;28;20840;-31
2022/09/18 10:00:25;;;;;;;4.72;1.98;;;;;;;17.45;55.86;99394.91;5067201;28;20024;-30
2022/09/18 10:03:12;;;;;;;4.07;1.20;;;;;;;17.56;54.68;99417.19;5085802;28;20121;-28
2022/09/18 10:05:43;;;;;;;5.40;2.20;;;;;;;17.70;53.46;99406.56;5085809;28;20055;-31
2022/09/18 10:08:23;;;;;;;4.07;1.40;;;;;;;17.70;55.08;99417.38;5067319;28;20539;-31
2022/09/18 10:10:54;;;;;;;2.17;1.35;;;;;;;17.77;55.22;99390.88;5067534;28;20035;-31
2022/09/18 10:13:28;;;;;;;2.72;1.20;;;;;;;17.81;54.76;99416.19;5085889;28;20032;-31
2022/09/18 10:16:14;;;;;;;1.77;1.20;;;;;;;18.00;54.06;99419.00;5050635;28;20051;-32
2022/09/18 10:18:45;;;;;;;1.85;1.13;;;;;;;17.63;54.06;99394.22;5067692;28;20027;-35
2022/09/18 10:21:16;;;;;;;2.03;1.25;;;;;;;17.86;54.19;99426.97;5067746;28;20169;-30
2022/09/18 10:23:44;;;;;;;2.65;1.23;;;;;;;18.11;54.58;99434.03;5067495;28;20034;-28
2022/09/18 10:26:19;;;;;;;3.80;1.07;;;;;;;18.15;53.62;99408.09;5085425;28;20463;-34
2022/09/18 10:28:45;;;;;;;1.58;1.20;;;;;;;18.40;55.79;99442.09;5085800;28;20300;-33
2022/09/18 10:31:12;;;;;;;1.73;1.48;;;;;;;18.32;52.54;99445.41;5085633;28;20096;-30
2022/09/18 10:33:44;;;;;;;1.35;1.00;;;;;;;18.29;53.66;99443.31;5067060;28;20109;-28
2022/09/18 10:36:28;;;;;;;3.33;1.45;;;;;;;18.46;53.56;99462.56;5085090;28;20060;-28
2022/09/18 10:38:53;;;;;;;5.72;1.65;;;;;;;18.51;52.67;99459.03;5085173;28;20028;-28
2022/09/18 10:41:36;;;;;;;3.20;1.40;;;;;;;18.85;50.49;99477.81;5066888;28;20168;-29
2022/09/18 10:44:11;;;;;;;3.95;2.03;;;;;;;18.85;50.15;99499.44;5066387;28;20035;-28
2022/09/18 10:46:39;;;;;;;7.50;2.22;;;;;;;18.54;47.52;99480.03;5066680;28;20115;-33
2022/09/18 10:49:28;;;;;;;5.28;2.20;;;;;;;18.59;48.23;99482.69;5066434;28;20066;-28
2022/09/18 10:52:32;;;;;;;2.28;1.40;;;;;;;18.97;49.81;99480.13;5085108;28;20039;-29
2022/09/18 10:55:04;;;;;;;2.00;1.25;;;;;;;19.09;47.66;99489.72;5084455;28;20040;-29
2022/09/18 10:57:37;;;;;;;1.88;1.10;;;;;;;19.45;48.54;99481.94;5084477;28;20052;-29
2022/09/18 11:00:20;;;;;;;2.60;1.05;;;;;;;19.30;47.52;99484.84;5066693;28;20127;-27
2022/09/18 11:02:57;;;;;;;5.03;1.20;;;;;;;19.16;46.10;99499.06;5066355;28;20020;-30
2022/09/18 11:05:30;;;;;;;1.70;1.10;;;;;;;19.25;46.63;99499.25;5084789;28;20056;-27
2022/09/18 11:08:00;;;;;;;2.45;1.00;;;;;;;19.83;45.86;99500.88;5066463;28;20466;-29
2022/09/18 11:10:28;;;;;;;1.20;1.10;;;;;;;20.44;44.21;99494.47;5066853;28;20024;-29
2022/09/18 11:12:56;;;;;;;6.00;1.20;;;;;;;20.98;44.74;99472.34;5066655;28;20115;-28
2022/09/18 11:15:27;;;;;;;;;;;;;;;21.55;43.52;99497.16;5067257;28;20036;-29
2022/09/18 11:17:56;;;;;;;2.28;1.25;;;;;;;21.52;41.94;99495.09;5084847;28;19934;-30
2022/09/18 11:20:24;;;;;;;4.45;1.20;;;;;;;21.74;41.75;99504.34;5066421;28;20038;-35
2022/09/18 11:22:50;;;;;;;2.45;1.20;;;;;;;21.85;39.78;99494.88;5084685;28;20111;-32
2022/09/18 11:25:17;;;;;;;1.50;1.20;;;;;;;21.62;42.73;99491.34;5084712;28;20617;-28
2022/09/18 11:28:01;;;;;;;3.28;1.20;;;;;;;21.96;44.11;99492.69;5066460;28;20028;-30
2022/09/18 11:30:26;;;;;;;2.63;1.10;;;;;;;21.73;39.79;99502.75;5084870;28;20028;-28
2022/09/18 11:32:59;;;;;;;3.63;1.30;;;;;;;21.69;40.69;99493.63;5084220;28;20090;-31
2022/09/18 11:35:27;;;;;;;2.30;1.23;;;;;;;21.56;41.53;99495.28;5084532;28;20067;-34
2022/09/18 11:37:56;;;;;;;3.03;1.50;;;;;;;21.74;41.26;99494.31;5066032;28;20035;-29
2022/09/18 11:40:31;;;;;;;2.78;1.60;;;;;;;21.62;42.14;99481.28;5066227;28;20035;-31
2022/09/18 11:42:58;;;;;;;3.63;1.75;;;;;;;21.58;42.32;99488.44;5065926;28;20043;-29
2022/09/18 11:45:29;;;;;;;5.82;1.60;;;;;;;21.72;43.71;99493.81;5065800;28;20030;-35